createdAt,value
2018-02-12T00:01:48.606Z,7.13
2018-02-12T00:04:23.446Z,2.80
2018-02-12T00:06:58.436Z,3.90
2018-02-12T00:09:33.430Z,5.63
2018-02-12T00:12:08.428Z,4.37
2018-02-12T00:14:43.431Z,4.57
2018-02-12T00:17:18.333Z,5.03
2018-02-12T00:19:53.474Z,4.30
2018-02-12T00:22:35.249Z,7.40
2018-02-12T00:25:10.480Z,3.70
2018-02-12T00:27:45.461Z,3.97
2018-02-12T00:30:20.507Z,3.30
2018-02-12T00:32:55.706Z,4.80
2018-02-12T00:35:30.845Z,4.67
2018-02-12T00:38:06.214Z,3.00
2018-02-12T00:40:40.761Z,5.63
2018-02-12T00:43:15.701Z,5.03
2018-02-12T00:45:50.738Z,3.77
2018-02-12T00:48:25.468Z,4.47
2018-02-12T00:51:00.746Z,5.57
2018-02-12T00:53:35.505Z,3.47
2018-02-12T00:56:10.485Z,4.17
2018-02-12T00:58:45.626Z,6.20
2018-02-12T01:01:20.641Z,4.80
2018-02-12T01:03:54.950Z,4.10
2018-02-12T01:06:29.965Z,4.00
2018-02-12T01:09:04.319Z,5.60
2018-02-12T01:11:39.554Z,6.07
2018-02-12T01:14:14.598Z,4.27
2018-02-12T01:16:49.512Z,4.53
2018-02-12T01:19:23.982Z,5.87
2018-02-12T01:21:59.057Z,4.72
2018-02-12T01:24:33.915Z,6.50
2018-02-12T01:27:08.745Z,5.47
2018-02-12T01:29:43.871Z,6.77
2018-02-12T01:32:18.735Z,5.93
2018-02-12T01:34:54.070Z,8.15
2018-02-12T01:37:28.906Z,6.60
2018-02-12T01:40:03.894Z,5.62
2018-02-12T01:42:38.758Z,7.80
2018-02-12T01:45:13.771Z,8.70
2018-02-12T01:47:49.063Z,8.10
2018-02-12T01:50:23.519Z,6.80
2018-02-12T01:52:58.726Z,8.25
2018-02-12T01:55:34.017Z,8.63
2018-02-12T01:58:08.737Z,7.90
2018-02-12T02:00:43.797Z,6.37
2018-02-12T02:03:18.745Z,12.37
2018-02-12T02:05:53.972Z,7.00
2018-02-12T02:08:29.021Z,7.50
2018-02-12T02:11:03.846Z,3.23
2018-02-12T02:13:38.360Z,8.40
2018-02-12T02:16:13.342Z,6.57
2018-02-12T02:18:49.085Z,5.28
2018-02-12T02:21:24.102Z,7.60
2018-02-12T02:23:59.009Z,3.72
2018-02-12T02:26:33.753Z,6.70
2018-02-12T02:29:08.770Z,5.10
2018-02-12T02:31:43.909Z,6.63
2018-02-12T02:34:18.877Z,4.82
2018-02-12T02:36:53.408Z,6.00
2018-02-12T02:39:28.183Z,3.60
2018-02-12T02:42:03.298Z,5.43
2018-02-12T02:44:38.322Z,6.60
2018-02-12T02:47:13.803Z,4.30
2018-02-12T02:49:49.204Z,5.70
2018-02-12T02:52:24.281Z,7.87
2018-02-12T02:54:59.253Z,5.73
2018-02-12T02:57:34.094Z,5.13
2018-02-12T03:00:09.026Z,5.20
2018-02-12T03:02:44.324Z,4.40
2018-02-12T03:05:19.072Z,5.30
2018-02-12T03:07:54.046Z,4.90
2018-02-12T03:10:28.990Z,3.43
2018-02-12T03:13:03.471Z,6.17
2018-02-12T03:15:38.402Z,6.23
2018-02-12T03:18:13.137Z,5.23
2018-02-12T03:20:49.321Z,6.43
2018-02-12T03:23:23.998Z,7.97
2018-02-12T03:25:59.259Z,5.07
2018-02-12T03:28:34.125Z,2.80
2018-02-12T03:31:09.047Z,4.93
2018-02-12T03:33:44.010Z,4.83
2018-02-12T03:36:19.008Z,5.87
2018-02-12T03:38:54.029Z,7.03
2018-02-12T03:41:28.482Z,6.27
2018-02-12T03:44:03.550Z,4.13
2018-02-12T03:46:38.310Z,8.27
2018-02-12T03:49:13.456Z,5.60
2018-02-12T03:51:49.438Z,6.57
2018-02-12T03:54:24.342Z,5.80
2018-02-12T03:56:59.281Z,11.10
2018-02-12T03:59:34.247Z,7.53
2018-02-12T04:02:09.286Z,17.10
2018-02-12T04:04:44.532Z,6.67
2018-02-12T04:07:19.230Z,7.30
2018-02-12T04:09:54.378Z,5.67
2018-02-12T04:12:29.294Z,5.33
2018-02-12T04:15:03.889Z,6.60
2018-02-12T04:17:39.127Z,7.53
2018-02-12T04:20:14.127Z,3.90
2018-02-12T04:22:49.466Z,8.03
2018-02-12T04:25:24.122Z,7.90
2018-02-12T04:27:59.338Z,6.95
2018-02-12T04:30:34.268Z,9.07
2018-02-12T04:33:09.135Z,7.90
2018-02-12T04:35:43.689Z,6.23
2018-02-12T04:38:18.538Z,9.17
2018-02-12T04:40:53.517Z,8.50
2018-02-12T04:43:28.432Z,7.77
2018-02-12T04:46:03.812Z,9.47
2018-02-12T04:48:38.354Z,10.57
2018-02-12T04:51:13.310Z,11.47
2018-02-12T04:53:48.161Z,11.45
2018-02-12T04:56:23.194Z,9.43
2018-02-12T04:58:58.244Z,11.90
2018-02-12T05:01:33.194Z,11.73
2018-02-12T05:04:08.177Z,11.47
2018-02-12T05:06:43.355Z,17.73
2018-02-12T05:09:18.559Z,13.93
2018-02-12T05:11:53.530Z,13.53
2018-02-12T05:14:28.660Z,15.67
2018-02-12T05:17:04.319Z,15.13
2018-02-12T05:19:39.330Z,14.23
2018-02-12T05:22:13.981Z,10.77
2018-02-12T05:24:49.735Z,11.40
2018-02-12T05:27:24.595Z,11.90
2018-02-12T05:29:59.481Z,11.77
2018-02-12T05:32:34.602Z,11.93
2018-02-12T05:35:09.639Z,10.80
2018-02-12T05:37:44.943Z,5.87
2018-02-12T05:40:19.810Z,10.90
2018-02-12T05:42:54.746Z,10.80
2018-02-12T05:45:29.693Z,10.70
2018-02-12T05:48:04.692Z,6.23
2018-02-12T05:50:39.346Z,11.20
2018-02-12T05:53:14.338Z,14.60
2018-02-12T05:55:49.712Z,8.27
2018-02-12T05:58:24.375Z,11.63
2018-02-12T06:00:59.495Z,9.47
2018-02-12T06:03:34.409Z,9.50
2018-02-12T06:06:08.938Z,7.93
2018-02-12T06:08:43.974Z,7.77
2018-02-12T06:11:19.380Z,8.43
2018-02-12T06:13:53.934Z,8.52
2018-02-12T06:16:28.931Z,12.40
2018-02-12T06:19:03.606Z,10.02
2018-02-12T06:21:38.838Z,11.13
2018-02-12T06:24:13.792Z,7.50
2018-02-12T06:26:49.859Z,9.57
2018-02-12T06:29:24.509Z,6.20
2018-02-12T06:31:59.502Z,9.80
2018-02-12T06:34:34.598Z,6.37
2018-02-12T06:37:09.622Z,4.47
2018-02-12T06:39:44.300Z,7.77
2018-02-12T06:42:19.500Z,7.70
2018-02-12T06:44:54.155Z,9.20
2018-02-12T06:47:28.903Z,11.07
2018-02-12T06:50:03.527Z,13.70
2018-02-12T06:52:38.634Z,5.07
2018-02-12T06:55:13.634Z,8.17
2018-02-12T06:57:49.825Z,12.32
2018-02-12T07:00:24.531Z,6.40
2018-02-12T07:02:59.629Z,5.77
2018-02-12T07:05:34.194Z,9.40
2018-02-12T07:08:08.977Z,7.83
2018-02-12T07:10:43.759Z,11.30
2018-02-12T07:13:18.749Z,8.50
2018-02-12T07:15:53.631Z,11.20
2018-02-12T07:18:28.666Z,4.13
2018-02-12T07:21:03.722Z,18.10
2018-02-12T07:23:38.613Z,8.60
2018-02-12T07:26:13.510Z,8.07
2018-02-12T07:28:48.262Z,14.10
2018-02-12T07:31:23.620Z,17.17
2018-02-12T07:33:58.768Z,11.45
2018-02-12T07:36:33.742Z,10.53
2018-02-12T07:39:08.917Z,10.83
2018-02-12T07:41:44.122Z,7.40
2018-02-12T07:44:19.682Z,6.27
2018-02-12T07:46:54.729Z,5.95
2018-02-12T07:49:29.177Z,8.97
2018-02-12T07:52:04.478Z,5.90
2018-02-12T07:54:39.300Z,4.00
2018-02-12T07:57:14.234Z,7.00
2018-02-12T07:59:50.174Z,5.28
2018-02-12T08:02:25.763Z,3.87
2018-02-12T08:05:00.548Z,7.90
2018-02-12T08:07:35.029Z,13.60
2018-02-12T08:10:10.054Z,9.80
2018-02-12T08:12:44.901Z,7.83
2018-02-12T08:15:19.867Z,7.60
2018-02-12T08:17:54.969Z,8.93
2018-02-12T08:20:29.821Z,7.70
2018-02-12T08:23:05.092Z,5.18
2018-02-12T08:25:39.922Z,4.30
2018-02-12T08:28:14.795Z,3.93
2018-02-12T08:30:50.126Z,5.93
2018-02-12T08:33:25.677Z,7.72
2018-02-12T08:36:00.351Z,5.70
2018-02-12T08:38:35.761Z,3.62
2018-02-12T08:41:11.075Z,3.50
2018-02-12T08:43:46.091Z,4.33
2018-02-12T08:46:20.901Z,4.07
2018-02-12T08:48:56.169Z,3.00
2018-02-12T08:51:31.558Z,4.47
2018-02-12T08:54:06.934Z,9.90
2018-02-12T08:56:41.954Z,3.07
2018-02-12T08:59:16.974Z,4.20
2018-02-12T09:01:52.206Z,4.93
2018-02-12T09:04:26.971Z,3.23
2018-02-12T09:07:02.100Z,4.70
2018-02-12T09:09:36.962Z,3.03
2018-02-12T09:12:11.766Z,2.58
2018-02-12T09:14:46.900Z,3.60
2018-02-12T09:17:21.839Z,3.05
2018-02-12T09:19:56.410Z,3.63
2018-02-12T09:22:31.375Z,7.23
2018-02-12T09:25:06.234Z,5.63
2018-02-12T09:27:41.132Z,4.70
2018-02-12T09:30:16.165Z,11.20
2018-02-12T09:32:51.566Z,10.53
2018-02-12T09:35:26.200Z,7.50
2018-02-12T09:38:01.502Z,8.87
2018-02-12T09:40:36.281Z,2.67
2018-02-12T09:43:11.222Z,2.77
2018-02-12T09:45:46.165Z,3.60
2018-02-12T09:48:21.112Z,1.73
2018-02-12T09:50:56.309Z,2.17
2018-02-12T09:53:31.204Z,4.43
2018-02-12T09:56:05.882Z,3.53
2018-02-12T09:58:41.014Z,2.67
2018-02-12T10:01:16.087Z,2.30
2018-02-12T10:03:51.197Z,1.67
2018-02-12T10:06:26.053Z,5.47
2018-02-12T10:09:01.030Z,1.58
2018-02-12T10:11:36.102Z,1.50
2018-02-12T10:14:11.145Z,6.50
2018-02-12T10:16:46.166Z,1.73
2018-02-12T10:19:20.974Z,2.60
2018-02-12T10:21:56.262Z,2.30
2018-02-12T10:24:30.593Z,3.40
2018-02-12T10:27:05.254Z,2.90
2018-02-12T10:29:39.626Z,3.43
2018-02-12T10:32:15.002Z,3.35
2018-02-12T10:34:50.455Z,1.90
2018-02-12T10:37:26.109Z,2.75
2018-02-12T10:40:01.497Z,1.87
2018-02-12T10:42:36.434Z,4.30
2018-02-12T10:45:11.375Z,2.70
2018-02-12T10:47:46.323Z,1.27
2018-02-12T10:50:21.226Z,4.63
2018-02-12T10:52:56.278Z,2.05
2018-02-12T10:55:31.213Z,2.53
2018-02-12T10:58:05.887Z,3.43
2018-02-12T11:00:40.733Z,3.00
2018-02-12T11:03:15.830Z,3.67
2018-02-12T11:05:50.550Z,2.27
2018-02-12T11:08:26.357Z,5.68
2018-02-12T11:11:01.414Z,2.40
2018-02-12T11:13:36.535Z,4.80
2018-02-12T11:16:11.181Z,4.78
2018-02-12T11:18:45.525Z,2.40
2018-02-12T11:21:20.522Z,4.17
2018-02-12T11:23:55.653Z,5.87
2018-02-12T11:26:30.355Z,2.20
2018-02-12T11:29:05.621Z,2.63
2018-02-12T11:31:40.385Z,4.90
2018-02-12T11:34:15.782Z,9.70
2018-02-12T11:36:51.282Z,1.40
2018-02-12T11:39:25.858Z,1.20
2018-02-12T11:42:00.721Z,4.10
2018-02-12T11:44:35.666Z,2.00
2018-02-12T11:47:10.603Z,5.27
2018-02-12T11:49:45.633Z,3.73
2018-02-12T11:52:20.581Z,2.30
2018-02-12T11:54:55.638Z,5.33
2018-02-12T11:57:30.409Z,7.27
2018-02-12T12:00:05.458Z,4.23
2018-02-12T12:02:40.442Z,3.63
2018-02-12T12:05:15.402Z,3.00
2018-02-12T12:07:50.774Z,6.05
2018-02-12T12:10:25.525Z,3.50
2018-02-12T12:13:00.866Z,5.40
2018-02-12T12:15:35.789Z,5.33
2018-02-12T12:18:11.310Z,2.17
2018-02-12T12:20:46.431Z,6.13
2018-02-12T12:23:21.150Z,3.10
2018-02-12T12:25:56.662Z,8.35
2018-02-12T12:28:31.603Z,3.63
2018-02-12T12:31:06.679Z,7.80
2018-02-12T12:33:41.610Z,3.33
2018-02-12T12:36:16.586Z,2.80
2018-02-12T12:38:51.745Z,2.90
2018-02-12T12:41:26.475Z,5.87
2018-02-12T12:44:01.718Z,11.82
2018-02-12T12:46:36.630Z,3.80
2018-02-12T12:49:11.467Z,2.00
2018-02-12T12:51:46.515Z,2.17
2018-02-12T12:54:21.107Z,4.53
2018-02-12T12:56:56.478Z,2.67
2018-02-12T12:59:31.386Z,8.93
2018-02-12T13:02:06.677Z,6.25
2018-02-12T13:04:41.250Z,7.40
2018-02-12T13:07:15.981Z,5.63
2018-02-12T13:09:51.140Z,1.83
2018-02-12T13:12:25.965Z,2.20
2018-02-12T13:15:00.958Z,3.00
2018-02-12T13:17:36.035Z,3.73
2018-02-12T13:20:10.853Z,5.03
2018-02-12T13:22:45.794Z,5.53
2018-02-12T13:25:20.777Z,3.50
2018-02-12T13:27:55.702Z,3.92
2018-02-12T13:30:30.886Z,11.50
2018-02-12T13:33:06.359Z,7.43
2018-02-12T13:35:41.104Z,7.43
2018-02-12T13:38:15.962Z,10.93
2018-02-12T13:40:51.086Z,6.83
2018-02-12T13:43:26.334Z,6.20
2018-02-12T13:46:01.677Z,5.10
2018-02-12T13:48:36.340Z,4.20
2018-02-12T13:51:11.237Z,5.27
2018-02-12T13:53:46.218Z,8.10
2018-02-12T13:56:21.126Z,6.47
2018-02-12T13:58:56.855Z,5.85
2018-02-12T14:01:31.825Z,5.60
2018-02-12T14:04:06.329Z,6.90
2018-02-12T14:06:41.270Z,8.63
2018-02-12T14:09:16.170Z,7.23
2018-02-12T14:11:51.150Z,7.70
2018-02-12T14:14:26.188Z,4.83
2018-02-12T14:17:01.154Z,5.12
2018-02-12T14:19:36.024Z,4.07
2018-02-12T14:22:10.994Z,2.47
2018-02-12T14:24:45.874Z,3.53
2018-02-12T14:27:20.450Z,2.23
2018-02-12T14:29:55.863Z,9.75
2018-02-12T14:32:31.018Z,3.67
2018-02-12T14:35:06.210Z,3.20
2018-02-12T14:37:41.149Z,7.03
2018-02-12T14:40:16.243Z,7.63
2018-02-12T14:42:51.337Z,14.97
2018-02-12T14:45:26.493Z,11.43
2018-02-12T14:48:01.459Z,12.17
2018-02-12T14:50:36.993Z,8.57
2018-02-12T14:53:12.218Z,5.62
2018-02-12T14:55:47.059Z,1.63
2018-02-12T14:58:22.026Z,7.50
2018-02-12T15:00:57.083Z,4.97
2018-02-12T15:03:31.648Z,1.10
2018-02-12T15:06:07.056Z,1.23
2018-02-12T15:08:42.098Z,0.93
2018-02-12T15:11:17.090Z,3.10
2018-02-12T15:13:52.102Z,4.77
2018-02-12T15:16:26.513Z,1.00
2018-02-12T15:19:01.291Z,0.67
2018-02-12T15:21:36.314Z,0.80
2018-02-12T15:24:11.364Z,0.50
2018-02-12T15:26:46.533Z,1.67
2018-02-12T15:29:21.350Z,1.57
2018-02-12T15:31:57.133Z,1.30
2018-02-12T15:34:33.279Z,1.37
2018-02-12T15:37:08.086Z,1.95
2018-02-12T15:39:43.140Z,1.17
2018-02-12T15:42:17.689Z,1.07
2018-02-12T15:44:52.947Z,3.03
2018-02-12T15:47:28.078Z,2.15
2018-02-12T15:50:03.263Z,0.50
2018-02-12T15:52:37.842Z,0.82
2018-02-12T15:55:12.766Z,1.33
2018-02-12T15:57:48.106Z,1.08
2018-02-12T16:00:23.079Z,1.50
2018-02-12T16:02:58.402Z,1.00
2018-02-12T16:05:33.271Z,1.57
2018-02-12T16:08:08.527Z,1.58
2018-02-12T16:10:43.124Z,1.00
2018-02-12T16:13:18.303Z,2.57
2018-02-12T16:15:53.256Z,2.20
2018-02-12T16:18:28.336Z,2.62
2018-02-12T16:21:03.591Z,2.70
2018-02-12T16:23:38.601Z,6.10
2018-02-12T16:26:13.337Z,3.93
2018-02-12T16:28:48.454Z,4.67
2018-02-12T16:31:23.421Z,1.47
2018-02-12T16:33:57.893Z,1.73
2018-02-12T16:36:33.305Z,1.92
2018-02-12T16:39:08.305Z,2.70
2018-02-12T16:41:43.154Z,1.77
2018-02-12T16:44:18.156Z,8.60
2018-02-12T16:46:53.077Z,7.60
2018-02-12T16:49:27.845Z,17.63
2018-02-12T16:52:02.856Z,2.60
2018-02-12T16:54:38.187Z,5.43
2018-02-12T16:57:12.831Z,3.33
2018-02-12T16:59:47.679Z,5.40
2018-02-12T17:02:22.618Z,6.50
2018-02-12T17:04:57.649Z,3.03
2018-02-12T17:07:32.842Z,4.13
2018-02-12T17:10:08.334Z,3.25
2018-02-12T17:12:43.490Z,4.90
2018-02-12T17:15:18.254Z,3.60
2018-02-12T17:17:53.758Z,4.20
2018-02-12T17:20:28.653Z,4.53
2018-02-12T17:23:03.834Z,2.55
2018-02-12T17:25:38.844Z,2.50
2018-02-12T17:28:13.700Z,2.30
2018-02-12T17:30:48.664Z,4.50
2018-02-12T17:33:23.598Z,4.70
2018-02-12T17:35:58.755Z,9.93
2018-02-12T17:38:33.818Z,5.93
2018-02-12T17:41:08.702Z,2.75
2018-02-12T17:43:43.334Z,6.20
2018-02-12T17:46:18.594Z,3.50
2018-02-12T17:48:53.608Z,5.00
2018-02-12T17:51:28.517Z,5.80
2018-02-12T17:54:03.786Z,5.77
2018-02-12T17:56:38.533Z,3.37
2018-02-12T17:59:13.479Z,8.40
2018-02-12T18:01:48.663Z,8.90
2018-02-12T18:04:23.096Z,7.27
2018-02-12T18:06:57.927Z,5.40
2018-02-12T18:09:32.954Z,15.03
2018-02-12T18:12:08.134Z,18.83
2018-02-12T18:14:43.589Z,12.90
2018-02-12T18:17:18.585Z,13.27
2018-02-12T18:19:53.889Z,13.70
2018-02-12T18:22:28.954Z,12.80
2018-02-12T18:25:04.490Z,6.18
2018-02-12T18:30:20.453Z,9.68
2018-02-12T18:32:55.109Z,10.93
2018-02-12T18:35:30.042Z,16.13
2018-02-12T18:38:05.400Z,19.10
2018-02-12T18:40:40.063Z,17.80
2018-02-12T18:43:15.603Z,14.55
2018-02-12T18:45:52.072Z,14.05
2018-02-12T18:48:27.636Z,14.83
2018-02-12T18:51:02.931Z,10.37
2018-02-12T18:53:37.898Z,20.70
2018-02-12T18:56:12.610Z,15.45
2018-02-12T18:58:47.767Z,18.37
2018-02-12T19:01:22.783Z,15.50
2018-02-12T19:03:57.530Z,10.47
2018-02-12T19:06:32.194Z,10.30
2018-02-12T19:09:07.757Z,11.97
2018-02-12T19:11:42.123Z,5.63
2018-02-12T19:14:16.965Z,8.20
2018-02-12T19:16:52.298Z,6.00
2018-02-12T19:19:26.879Z,9.13
2018-02-12T19:22:01.620Z,12.50
2018-02-12T19:24:36.874Z,12.33
2018-02-12T19:27:11.966Z,12.33
2018-02-12T19:29:46.802Z,11.68
2018-02-12T19:32:21.913Z,10.10
2018-02-12T19:34:56.190Z,9.57
2018-02-12T19:37:30.902Z,11.23
2018-02-12T19:40:06.102Z,10.13
2018-02-12T19:42:40.965Z,9.57
2018-02-12T19:45:15.880Z,9.87
2018-02-12T19:50:40.275Z,12.43
2018-02-12T19:53:15.214Z,9.53
2018-02-12T19:55:50.079Z,14.20
2018-02-12T19:58:25.131Z,16.57
2018-02-12T20:01:00.370Z,16.23
2018-02-12T20:03:35.406Z,15.57
2018-02-12T20:06:11.025Z,13.30
2018-02-12T20:08:45.368Z,9.83
2018-02-12T20:11:20.746Z,13.32
2018-02-12T20:13:55.998Z,8.85
2018-02-12T20:16:31.055Z,6.67
2018-02-12T20:19:06.040Z,9.20
2018-02-12T20:21:40.946Z,8.48
2018-02-12T20:24:15.914Z,8.30
2018-02-12T20:26:52.292Z,8.77
2018-02-12T20:29:27.276Z,13.23
2018-02-12T20:32:02.261Z,10.55
2018-02-12T20:34:37.097Z,7.73
2018-02-12T20:37:12.118Z,12.90
2018-02-12T20:39:46.974Z,8.30
2018-02-12T20:42:22.009Z,7.67
2018-02-12T20:44:57.063Z,7.50
2018-02-12T20:47:32.115Z,8.60
2018-02-12T20:50:08.318Z,11.73
2018-02-12T20:52:43.503Z,9.90
2018-02-12T20:55:18.925Z,7.72
2018-02-12T20:57:53.906Z,10.15
2018-02-12T21:00:28.374Z,8.60
2018-02-12T21:03:03.619Z,10.70
2018-02-12T21:05:38.546Z,22.27
2018-02-12T21:08:13.394Z,7.80
2018-02-12T21:10:48.421Z,12.30
2018-02-12T21:13:23.448Z,8.30
2018-02-12T21:15:58.417Z,7.20
2018-02-12T21:18:33.585Z,12.50
2018-02-12T21:21:08.990Z,8.93
2018-02-12T21:23:44.126Z,7.33
2018-02-12T21:26:19.134Z,8.27
2018-02-12T21:28:54.406Z,6.53
2018-02-12T21:31:29.286Z,11.77
2018-02-12T21:34:04.463Z,12.93
2018-02-12T21:36:39.450Z,9.45
2018-02-12T21:39:14.042Z,7.68
2018-02-12T21:41:49.275Z,13.13
2018-02-12T21:44:24.162Z,11.17
2018-02-12T21:46:59.158Z,11.60
2018-02-12T21:49:34.259Z,8.70
2018-02-12T21:52:09.485Z,7.78
2018-02-12T21:54:44.377Z,10.07
2018-02-12T21:57:19.184Z,8.00
2018-02-12T21:59:53.751Z,7.20
2018-02-12T22:02:29.062Z,5.55
2018-02-12T22:05:03.605Z,10.00
2018-02-12T22:07:38.505Z,10.77
2018-02-12T22:10:13.711Z,7.47
2018-02-12T22:12:48.647Z,9.13
2018-02-12T22:15:23.311Z,11.80
2018-02-12T22:17:58.578Z,10.27
2018-02-12T22:20:33.842Z,8.57
2018-02-12T22:23:08.945Z,10.10
2018-02-12T22:25:44.383Z,12.47
2018-02-12T22:28:19.412Z,8.53
2018-02-12T22:30:54.446Z,10.43
2018-02-12T22:33:28.943Z,11.87
2018-02-12T22:36:03.888Z,10.37
2018-02-12T22:38:38.786Z,19.60
2018-02-12T22:41:13.690Z,9.30
2018-02-12T22:43:48.531Z,7.87
2018-02-12T22:46:23.546Z,9.33
2018-02-12T22:48:58.694Z,10.63
2018-02-12T22:51:33.363Z,14.00
2018-02-12T22:54:08.522Z,21.10
2018-02-12T22:56:43.449Z,11.60
2018-02-12T22:59:18.462Z,11.60
2018-02-12T23:01:53.295Z,9.40
2018-02-12T23:04:28.366Z,10.77
2018-02-12T23:07:03.615Z,10.20
2018-02-12T23:09:38.534Z,7.60
2018-02-12T23:12:13.436Z,7.80
2018-02-12T23:14:48.346Z,11.67
2018-02-12T23:17:23.421Z,17.10
2018-02-12T23:19:58.387Z,8.85
2018-02-12T23:22:33.526Z,14.97
2018-02-12T23:25:08.666Z,9.55
2018-02-12T23:27:43.531Z,12.93
2018-02-12T23:30:18.512Z,19.47
2018-02-12T23:32:53.517Z,9.73
2018-02-12T23:35:28.499Z,9.35
2018-02-12T23:38:03.394Z,10.48
2018-02-12T23:40:38.530Z,9.03
2018-02-12T23:43:13.498Z,9.77
2018-02-12T23:45:48.082Z,11.83
2018-02-12T23:48:23.043Z,11.03
2018-02-12T23:50:57.940Z,9.27
2018-02-12T23:53:32.638Z,10.80
2018-02-12T23:56:07.814Z,11.40
2018-02-12T23:58:42.642Z,11.97
